Time;durP1;ratioP1;P1;durP2;ratioP2;P2;SDS_P1;SDS_P2;PMS_P1;PMS_P2;Temp;Humidity;BMP_temperature;BMP_pressure;BME280_temperature;BME280_humidity;BME280_pressure;Samples;Min_cycle;Max_cycle;Signal;HPM_P1;HPM_P2
2022/05/12 00:00:54;;;;;;;11.43;4.70;;;15.10;99.90;;;;;;4942469;28;20476;-75
2022/05/12 00:03:22;;;;;;;12.67;4.30;;;15.10;99.90;;;;;;4941784;28;20464;-75
2022/05/12 00:05:51;;;;;;;10.80;4.20;;;15.10;99.90;;;;;;4942950;28;20444;-76
2022/05/12 00:08:19;;;;;;;13.77;4.57;;;15.10;99.90;;;;;;4942171;28;20735;-75
2022/05/12 00:10:47;;;;;;;8.20;3.30;;;15.10;99.90;;;;;;4940949;28;20481;-75
2022/05/12 00:13:15;;;;;;;10.23;4.13;;;15.10;99.90;;;;;;4940877;28;20759;-75
2022/05/12 00:15:43;;;;;;;13.27;4.00;;;15.10;99.90;;;;;;4942303;28;20477;-75
2022/05/12 00:18:11;;;;;;;10.47;4.00;;;15.10;99.90;;;;;;4940870;28;20441;-75
2022/05/12 00:20:41;;;;;;;9.97;3.23;;;15.10;99.90;;;;;;4940442;28;20469;-75
2022/05/12 00:23:15;;;;;;;7.80;4.00;;;15.20;99.90;;;;;;4940808;28;20527;-75
2022/05/12 00:25:45;;;;;;;9.03;3.63;;;15.20;99.90;;;;;;4941861;28;21011;-75
2022/05/12 00:28:13;;;;;;;8.10;4.20;;;15.10;99.90;;;;;;4940797;28;20449;-75
2022/05/12 00:30:42;;;;;;;5.03;3.67;;;15.10;99.90;;;;;;4940355;28;20979;-75
2022/05/12 00:33:11;;;;;;;8.00;4.00;;;15.10;99.90;;;;;;4940681;28;20487;-77
2022/05/12 00:35:40;;;;;;;10.50;4.80;;;15.00;99.90;;;;;;4940317;28;20499;-77
2022/05/12 00:38:08;;;;;;;9.90;4.27;;;15.00;99.90;;;;;;4941699;28;21049;-78
2022/05/12 00:40:38;;;;;;;7.20;4.17;;;15.00;99.90;;;;;;4945592;28;20987;-78
2022/05/12 00:43:09;;;;;;;6.80;3.93;;;15.00;99.90;;;;;;4943441;28;20457;-75
2022/05/12 00:45:38;;;;;;;6.10;3.83;;;15.00;99.90;;;;;;4940344;28;20444;-75
2022/05/12 00:48:06;;;;;;;7.20;3.90;;;15.00;99.90;;;;;;4940651;28;20444;-78
2022/05/12 00:50:38;;;;;;;4.20;3.70;;;15.00;99.90;;;;;;4942225;28;20540;-74
2022/05/12 00:53:10;;;;;;;5.57;3.40;;;14.90;99.90;;;;;;4940467;28;20424;-74
2022/05/12 00:55:42;;;;;;;6.20;3.90;;;14.90;99.90;;;;;;4941301;28;20448;-74
2022/05/12 00:58:15;;;;;;;4.57;3.53;;;15.00;99.90;;;;;;4941879;28;20701;-78
2022/05/12 01:00:43;;;;;;;7.73;3.93;;;15.00;99.90;;;;;;4941103;28;20481;-78
2022/05/12 01:03:16;;;;;;;3.87;3.00;;;15.10;99.90;;;;;;4942091;28;20757;-76
2022/05/12 01:05:44;;;;;;;9.30;3.87;;;15.20;99.90;;;;;;4940221;28;20571;-75
2022/05/12 01:08:14;;;;;;;6.00;3.23;;;15.20;99.90;;;;;;4936375;28;20475;-76
2022/05/12 01:10:45;;;;;;;8.30;3.33;;;15.20;99.90;;;;;;4940328;28;20885;-77
2022/05/12 01:13:24;;;;;;;11.30;4.10;;;15.30;99.90;;;;;;4939146;28;20686;-76
2022/05/12 01:15:54;;;;;;;8.23;3.93;;;15.20;99.90;;;;;;4939325;28;20726;-78
2022/05/12 01:18:23;;;;;;;7.50;4.00;;;15.10;99.90;;;;;;4939088;28;20449;-78
2022/05/12 01:20:52;;;;;;;5.33;4.50;;;15.00;99.90;;;;;;4938809;28;20594;-76
2022/05/12 01:23:25;;;;;;;9.10;4.37;;;15.00;99.90;;;;;;4939630;28;20463;-77
2022/05/12 01:25:56;;;;;;;7.83;4.03;;;14.90;99.90;;;;;;4938422;28;20453;-77
2022/05/12 01:28:25;;;;;;;13.17;4.30;;;15.00;99.90;;;;;;4939639;28;20717;-76
2022/05/12 01:30:53;;;;;;;9.00;4.80;;;14.90;99.90;;;;;;4940358;28;20817;-76
2022/05/12 01:33:22;;;;;;;7.60;4.37;;;14.80;99.90;;;;;;4940030;28;20726;-78
2022/05/12 01:35:50;;;;;;;7.87;4.20;;;14.80;99.90;;;;;;4941459;28;20455;-79
2022/05/12 01:38:19;;;;;;;7.60;3.67;;;14.70;99.90;;;;;;4940364;28;20429;-78
2022/05/12 01:40:48;;;;;;;9.33;4.97;;;14.70;99.90;;;;;;4943233;28;20990;-80
2022/05/12 01:43:17;;;;;;;6.10;3.60;;;14.70;99.90;;;;;;4945344;28;20985;-80
2022/05/12 01:45:44;;;;;;;7.13;3.77;;;14.60;99.90;;;;;;4948705;28;20451;-81
2022/05/12 01:48:14;;;;;;;5.00;4.10;;;14.60;99.90;;;;;;4946789;28;20444;-79
2022/05/12 01:50:44;;;;;;;9.73;3.77;;;14.60;99.90;;;;;;4947352;28;20551;-78
2022/05/12 01:53:13;;;;;;;5.03;3.40;;;14.50;99.90;;;;;;4945670;28;20700;-80
2022/05/12 01:55:43;;;;;;;8.50;4.10;;;14.40;99.90;;;;;;4946643;28;20575;-80
2022/05/12 01:58:12;;;;;;;11.37;4.50;;;14.30;99.90;;;;;;4944776;28;21154;-80
2022/05/12 02:00:40;;;;;;;6.83;3.50;;;14.20;99.90;;;;;;4944719;28;20776;-80
2022/05/12 02:03:07;;;;;;;9.13;4.10;;;14.20;99.90;;;;;;4946193;28;20497;-80
2022/05/12 02:05:37;;;;;;;6.20;3.83;;;14.30;99.90;;;;;;4945479;28;20726;-81
2022/05/12 02:08:07;;;;;;;7.70;3.63;;;14.30;99.90;;;;;;4947500;28;20555;-79
2022/05/12 02:10:39;;;;;;;5.23;3.23;;;14.50;99.90;;;;;;4944530;28;20475;-78
2022/05/12 02:13:07;;;;;;;3.30;2.90;;;14.50;99.90;;;;;;4945266;28;20802;-78
2022/05/12 02:15:37;;;;;;;5.83;2.90;;;14.60;99.90;;;;;;4944390;28;20460;-80
2022/05/12 02:18:06;;;;;;;4.47;2.80;;;14.60;99.90;;;;;;4946633;28;20773;-79
2022/05/12 02:20:35;;;;;;;2.77;2.47;;;14.70;99.90;;;;;;4946307;28;20492;-79
2022/05/12 02:23:03;;;;;;;3.07;2.77;;;14.60;99.90;;;;;;4946689;28;20451;-79
2022/05/12 02:25:31;;;;;;;5.03;3.20;;;14.60;99.90;;;;;;4943484;28;20536;-78
2022/05/12 02:27:59;;;;;;;5.20;3.20;;;14.50;99.90;;;;;;4942682;28;20738;-78
2022/05/12 02:30:29;;;;;;;6.07;3.50;;;14.30;99.90;;;;;;4942225;28;20476;-77
2022/05/12 02:32:59;;;;;;;4.70;3.70;;;14.10;99.90;;;;;;4942550;28;20441;-77
2022/05/12 02:35:28;;;;;;;5.30;4.33;;;13.90;99.90;;;;;;4942306;28;20637;-76
2022/05/12 02:37:56;;;;;;;5.13;4.43;;;13.70;99.90;;;;;;4942661;28;20476;-76
2022/05/12 02:40:28;;;;;;;5.67;5.10;;;13.50;99.90;;;;;;4941711;28;20461;-76
2022/05/12 02:42:57;;;;;;;8.90;5.93;;;13.30;99.90;;;;;;4943481;28;20684;-78
2022/05/12 02:45:26;;;;;;;12.07;5.63;;;13.20;99.90;;;;;;4942570;28;21066;-78
2022/05/12 02:47:54;;;;;;;6.33;4.90;;;13.20;99.90;;;;;;4942681;28;20648;-77
2022/05/12 02:50:24;;;;;;;7.47;4.70;;;13.20;99.90;;;;;;4942066;28;20779;-78
2022/05/12 02:52:51;;;;;;;11.00;4.40;;;13.10;99.90;;;;;;4943964;28;20754;-78
2022/05/12 02:55:19;;;;;;;7.30;4.17;;;13.00;99.90;;;;;;4942182;28;20452;-78
2022/05/12 02:57:48;;;;;;;6.03;2.67;;;12.90;99.90;;;;;;4942473;28;20484;-78
2022/05/12 03:00:18;;;;;;;1.73;1.63;;;12.80;99.90;;;;;;4943197;28;20735;-78
2022/05/12 03:02:46;;;;;;;2.53;1.70;;;12.60;99.90;;;;;;4942655;28;20826;-79
2022/05/12 03:05:15;;;;;;;3.33;2.00;;;12.50;99.90;;;;;;4941752;28;20452;-77
2022/05/12 03:07:44;;;;;;;1.57;1.47;;;12.40;99.90;;;;;;4942889;28;20445;-79
2022/05/12 03:10:13;;;;;;;1.80;1.70;;;12.40;99.90;;;;;;4942959;28;20907;-78
2022/05/12 03:12:41;;;;;;;2.10;1.83;;;12.30;99.90;;;;;;4944436;28;20522;-78
2022/05/12 03:15:11;;;;;;;1.63;1.53;;;12.30;99.90;;;;;;4941712;28;20445;-77
2022/05/12 03:17:42;;;;;;;2.00;1.70;;;12.40;99.90;;;;;;4941137;28;20481;-78
2022/05/12 03:20:14;;;;;;;2.20;1.80;;;12.30;99.90;;;;;;4941321;28;21238;-76
2022/05/12 03:22:42;;;;;;;2.63;1.70;;;12.30;99.90;;;;;;4941469;28;20853;-76
2022/05/12 03:25:14;;;;;;;2.10;1.33;;;12.30;99.90;;;;;;4941112;28;20827;-75
2022/05/12 03:27:43;;;;;;;1.63;1.50;;;12.30;99.90;;;;;;4941378;28;20429;-76
2022/05/12 03:30:14;;;;;;;1.83;1.73;;;12.30;99.90;;;;;;4941014;28;20492;-76
2022/05/12 03:32:42;;;;;;;4.23;1.90;;;12.30;99.90;;;;;;4943745;28;20443;-78
2022/05/12 03:35:11;;;;;;;4.10;1.50;;;12.30;99.90;;;;;;4941199;28;20844;-76
2022/05/12 03:37:41;;;;;;;4.63;2.17;;;12.30;99.90;;;;;;4942075;28;20485;-78
2022/05/12 03:40:12;;;;;;;2.63;2.00;;;12.30;99.90;;;;;;4942776;28;20763;-78
2022/05/12 03:42:40;;;;;;;1.90;1.80;;;12.30;99.90;;;;;;4943203;28;20480;-78
2022/05/12 03:45:08;;;;;;;2.43;2.03;;;12.40;99.90;;;;;;4942215;28;20665;-77
2022/05/12 03:47:41;;;;;;;2.77;2.33;;;12.30;99.90;;;;;;4942611;28;20500;-76
2022/05/12 03:50:16;;;;;;;7.60;3.13;;;12.30;99.90;;;;;;4942962;28;20719;-78
2022/05/12 03:52:47;;;;;;;3.10;2.30;;;12.20;99.90;;;;;;4944197;28;20848;-77
2022/05/12 03:55:17;;;;;;;4.10;2.40;;;12.20;99.90;;;;;;4943656;28;20448;-78
2022/05/12 03:57:47;;;;;;;5.50;2.47;;;12.30;99.90;;;;;;4941745;28;20987;-77
2022/05/12 04:00:19;;;;;;;4.10;2.30;;;12.30;99.90;;;;;;4941718;28;20606;-77
2022/05/12 04:02:47;;;;;;;6.13;2.27;;;12.30;99.90;;;;;;4941159;28;20441;-77
2022/05/12 04:05:15;;;;;;;3.60;2.23;;;12.40;99.90;;;;;;4942542;28;20948;-76
2022/05/12 04:07:51;;;;;;;4.27;2.20;;;12.40;99.90;;;;;;4946864;28;20448;-77
2022/05/12 04:10:21;;;;;;;6.33;2.77;;;12.40;99.90;;;;;;4942261;28;20890;-77
2022/05/12 04:12:49;;;;;;;12.50;3.47;;;12.40;99.90;;;;;;4941364;28;20445;-77
2022/05/12 04:15:18;;;;;;;5.17;3.17;;;12.40;99.90;;;;;;4943006;28;20952;-76
2022/05/12 04:17:55;;;;;;;7.13;2.80;;;12.40;99.90;;;;;;4943011;28;20485;-76
2022/05/12 04:20:23;;;;;;;5.03;2.83;;;12.50;99.90;;;;;;4946405;29;20703;-77
2022/05/12 04:22:54;;;;;;;4.60;2.30;;;12.50;99.90;;;;;;4944713;28;20785;-76
2022/05/12 04:25:27;;;;;;;7.20;2.47;;;12.50;99.90;;;;;;4945813;28;20445;-79
2022/05/12 04:27:55;;;;;;;5.90;2.70;;;12.60;99.90;;;;;;4952357;28;20711;-78
2022/05/12 04:30:25;;;;;;;3.67;2.80;;;12.70;99.90;;;;;;4946226;28;20465;-77
2022/05/12 04:32:54;;;;;;;7.53;2.73;;;12.60;99.90;;;;;;4942508;28;20583;-76
2022/05/12 04:35:23;;;;;;;10.10;3.00;;;12.60;99.90;;;;;;4944932;28;20452;-77
2022/05/12 04:37:54;;;;;;;10.70;3.80;;;12.60;99.90;;;;;;4943771;28;20516;-76
2022/05/12 04:40:24;;;;;;;4.43;2.50;;;12.60;99.90;;;;;;4940656;28;20623;-79
2022/05/12 04:42:56;;;;;;;11.60;5.03;;;12.70;99.90;;;;;;4941453;28;20540;-76
2022/05/12 04:45:26;;;;;;;4.73;3.47;;;12.70;99.90;;;;;;4940292;28;20690;-77
2022/05/12 04:47:55;;;;;;;3.20;2.70;;;12.70;99.90;;;;;;4941242;28;20445;-77
2022/05/12 04:50:26;;;;;;;5.40;2.93;;;12.70;99.90;;;;;;4941765;28;21011;-75
2022/05/12 04:52:55;;;;;;;6.03;3.27;;;12.70;99.90;;;;;;4940624;28;20447;-76
2022/05/12 04:55:23;;;;;;;8.90;3.43;;;12.70;99.90;;;;;;4940319;28;20480;-72
2022/05/12 04:57:55;;;;;;;4.10;3.50;;;12.70;99.90;;;;;;4940745;28;20827;-73
2022/05/12 05:00:26;;;;;;;7.13;3.33;;;12.80;99.90;;;;;;4939658;28;20572;-73
2022/05/12 05:02:55;;;;;;;9.23;3.33;;;12.80;99.90;;;;;;4940057;28;20451;-73
2022/05/12 05:05:23;;;;;;;6.53;3.60;;;12.80;99.90;;;;;;4940735;28;20445;-73
2022/05/12 05:07:51;;;;;;;3.20;3.00;;;12.90;99.90;;;;;;4937912;28;20994;-74
2022/05/12 05:10:19;;;;;;;9.83;4.37;;;12.90;99.90;;;;;;4935562;29;20500;-74
2022/05/12 05:12:47;;;;;;;8.53;3.20;;;12.90;99.90;;;;;;4940289;28;20804;-73
2022/05/12 05:15:16;;;;;;;6.20;3.37;;;13.00;99.90;;;;;;4939924;28;20778;-73
2022/05/12 05:17:46;;;;;;;4.90;2.90;;;13.00;99.90;;;;;;4939795;28;20453;-74
2022/05/12 05:20:17;;;;;;;6.50;2.87;;;13.10;99.90;;;;;;4943960;28;20484;-74
2022/05/12 05:22:45;;;;;;;5.27;3.17;;;13.10;99.90;;;;;;4942234;29;21041;-75
2022/05/12 05:25:14;;;;;;;6.67;3.60;;;13.10;99.90;;;;;;4942153;28;20647;-74
2022/05/12 05:27:42;;;;;;;4.50;3.40;;;13.10;99.90;;;;;;4942111;28;20535;-74
2022/05/12 05:30:13;;;;;;;11.27;3.60;;;13.00;99.90;;;;;;4942466;28;21049;-73
2022/05/12 05:32:40;;;;;;;9.10;3.90;;;12.90;99.90;;;;;;4943273;28;20595;-72
2022/05/12 05:35:12;;;;;;;4.33;2.97;;;12.80;99.90;;;;;;4942303;28;20495;-71
2022/05/12 05:37:41;;;;;;;5.43;3.30;;;12.70;99.90;;;;;;4940853;28;20991;-72
2022/05/12 05:40:12;;;;;;;4.50;2.93;;;12.60;99.90;;;;;;4943168;28;21117;-72
2022/05/12 05:42:41;;;;;;;6.53;2.83;;;12.60;99.90;;;;;;4940993;28;20448;-72
2022/05/12 05:45:15;;;;;;;8.83;3.47;;;12.60;99.90;;;;;;4940177;28;20750;-73
2022/05/12 05:47:45;;;;;;;9.37;3.87;;;12.60;99.90;;;;;;4938341;28;20476;-71
2022/05/12 05:50:16;;;;;;;8.10;3.40;;;12.70;99.90;;;;;;4941690;28;20473;-72
2022/05/12 05:55:29;;;;;;;10.60;3.33;;;12.80;99.90;;;;;;4935106;29;20543;-72
2022/05/12 05:57:58;;;;;;;5.00;3.10;;;12.80;99.90;;;;;;4941220;28;20982;-72
2022/05/12 06:00:28;;;;;;;8.53;3.27;;;12.90;99.90;;;;;;4942747;29;20488;-72
2022/05/12 06:02:56;;;;;;;3.30;3.00;;;13.00;99.90;;;;;;4942407;28;20448;-72
2022/05/12 06:05:27;;;;;;;6.17;2.67;;;13.20;99.90;;;;;;4940795;28;20528;-71
2022/05/12 06:07:56;;;;;;;11.33;2.90;;;13.40;99.90;;;;;;4940958;28;20485;-71
2022/05/12 06:10:24;;;;;;;7.60;3.00;;;13.50;99.90;;;;;;4943126;28;20540;-72
2022/05/12 06:12:53;;;;;;;6.33;3.30;;;13.70;99.90;;;;;;4941401;28;20951;-73
2022/05/12 06:15:21;;;;;;;4.13;1.97;;;13.80;99.90;;;;;;4942641;28;20488;-72
2022/05/12 06:17:49;;;;;;;5.10;3.00;;;14.00;99.90;;;;;;4939382;28;20844;-73
2022/05/12 06:20:24;;;;;;;13.67;3.63;;;14.00;99.90;;;;;;4942370;28;20488;-72
2022/05/12 06:22:53;;;;;;;8.47;3.10;;;14.10;99.90;;;;;;4941497;28;20465;-73
2022/05/12 06:25:21;;;;;;;5.00;3.47;;;14.10;99.90;;;;;;4939693;28;20461;-72
2022/05/12 06:27:48;;;;;;;6.13;2.90;;;14.20;99.90;;;;;;4942503;28;20468;-71
2022/05/12 06:30:16;;;;;;;4.13;2.70;;;14.10;99.90;;;;;;4941925;28;20469;-70
2022/05/12 06:32:46;;;;;;;5.43;2.90;;;14.10;99.90;;;;;;4942083;28;20476;-73
2022/05/12 06:35:17;;;;;;;6.30;3.03;;;14.10;99.90;;;;;;4940600;28;20466;-71
2022/05/12 06:37:45;;;;;;;4.60;2.90;;;14.20;99.90;;;;;;4940158;28;20816;-71
2022/05/12 06:40:14;;;;;;;4.90;2.97;;;14.20;99.90;;;;;;4942034;28;20493;-70
2022/05/12 06:42:50;;;;;;;7.90;3.43;;;14.20;99.90;;;;;;4940788;28;20657;-72
2022/05/12 06:45:21;;;;;;;4.27;2.30;;;14.40;99.90;;;;;;4940036;28;21010;-72
2022/05/12 06:47:51;;;;;;;4.33;3.10;;;14.40;99.90;;;;;;4940247;28;20686;-76
2022/05/12 06:50:21;;;;;;;9.40;2.83;;;14.50;99.90;;;;;;4941531;28;20473;-71
2022/05/12 06:52:49;;;;;;;5.43;2.77;;;14.50;99.90;;;;;;4937911;28;20456;-71
2022/05/12 06:55:19;;;;;;;8.73;2.33;;;14.60;99.90;;;;;;4944844;28;20453;-71
2022/05/12 06:57:47;;;;;;;6.33;2.83;;;14.80;99.90;;;;;;4944969;28;20480;-71
2022/05/12 07:00:16;;;;;;;8.07;2.87;;;15.00;99.90;;;;;;4947215;28;20495;-71
2022/05/12 07:02:45;;;;;;;3.70;3.23;;;15.00;99.90;;;;;;4951821;28;20519;-70
2022/05/12 07:05:14;;;;;;;4.60;2.60;;;15.20;99.90;;;;;;4947186;28;20576;-70
2022/05/12 07:07:43;;;;;;;5.13;2.43;;;15.20;99.90;;;;;;4951636;28;20436;-70
2022/05/12 07:10:13;;;;;;;3.10;2.20;;;15.30;99.90;;;;;;4939596;28;20531;-75
2022/05/12 07:12:44;;;;;;;2.20;2.00;;;15.40;99.90;;;;;;4944878;28;20924;-77
2022/05/12 07:15:13;;;;;;;4.30;2.40;;;15.40;99.90;;;;;;4941794;28;20449;-80
2022/05/12 07:17:43;;;;;;;6.83;2.37;;;15.40;99.90;;;;;;4947239;28;20441;-77
2022/05/12 07:28:34;;;;;;;4.97;2.30;;;15.30;99.90;;;;;;4941898;28;20520;-80
2022/05/12 07:31:02;;;;;;;11.17;2.43;;;15.30;99.90;;;;;;4941941;28;21058;-74
2022/05/12 07:33:38;;;;;;;4.53;1.73;;;15.30;99.90;;;;;;4941612;28;20440;-77
2022/05/12 07:36:09;;;;;;;4.30;2.60;;;15.30;99.90;;;;;;4941531;28;20448;-75
2022/05/12 07:38:37;;;;;;;6.30;2.07;;;15.30;99.90;;;;;;4939799;28;20456;-74
2022/05/12 07:41:07;;;;;;;3.17;2.13;;;15.40;99.90;;;;;;4941193;28;20491;-75
2022/05/12 07:43:36;;;;;;;5.50;2.20;;;15.50;99.90;;;;;;4941863;28;20452;-76
2022/05/12 07:46:04;;;;;;;3.70;1.77;;;15.50;99.90;;;;;;4941095;28;20449;-75
2022/05/12 07:48:32;;;;;;;6.40;2.40;;;15.60;99.90;;;;;;4941687;28;20629;-74
2022/05/12 07:51:00;;;;;;;6.67;1.73;;;15.60;99.90;;;;;;4941317;28;20584;-76
2022/05/12 07:53:28;;;;;;;3.87;2.00;;;15.70;99.90;;;;;;4941578;28;20444;-76
2022/05/12 07:55:56;;;;;;;4.47;2.10;;;15.60;99.90;;;;;;4941427;28;21075;-76
2022/05/12 07:58:24;;;;;;;2.07;1.60;;;15.60;99.90;;;;;;4940971;28;20548;-75
2022/05/12 08:00:57;;;;;;;4.57;2.50;;;15.70;99.90;;;;;;4936565;28;20587;-75
2022/05/12 08:03:26;;;;;;;3.90;2.50;;;15.80;99.90;;;;;;4937925;29;20444;-77
2022/05/12 08:05:54;;;;;;;3.90;2.07;;;15.80;99.90;;;;;;4938180;28;20464;-74
2022/05/12 08:08:22;;;;;;;4.27;1.80;;;15.80;99.90;;;;;;4939821;28;20456;-76
2022/05/12 08:10:50;;;;;;;2.87;2.10;;;15.90;99.90;;;;;;4940484;28;20449;-77
2022/05/12 08:13:18;;;;;;;5.37;2.17;;;16.00;99.90;;;;;;4941706;28;20966;-77
2022/05/12 08:15:47;;;;;;;4.60;2.07;;;16.00;99.90;;;;;;4939897;28;20452;-77
2022/05/12 08:18:18;;;;;;;2.30;2.13;;;15.90;99.90;;;;;;4940504;28;20461;-77
2022/05/12 08:20:46;;;;;;;3.80;2.23;;;15.70;99.90;;;;;;4940030;28;20514;-78
2022/05/12 08:23:15;;;;;;;16.63;3.83;;;15.60;99.90;;;;;;4940141;28;20724;-78
2022/05/12 08:25:44;;;;;;;4.43;2.93;;;15.60;99.90;;;;;;4941690;28;20457;-75
2022/05/12 08:28:14;;;;;;;3.30;3.00;;;15.70;99.90;;;;;;4940664;28;20473;-79
2022/05/12 08:30:43;;;;;;;3.93;3.43;;;15.70;99.90;;;;;;4941997;29;20964;-81
2022/05/12 08:33:11;;;;;;;4.27;2.27;;;15.80;99.90;;;;;;4941694;28;20444;-80
2022/05/12 08:35:42;;;;;;;3.40;2.10;;;16.10;99.90;;;;;;4940784;28;20452;-82
2022/05/12 08:38:11;;;;;;;6.50;2.00;;;16.10;99.90;;;;;;4941824;28;20479;-81
2022/05/12 08:40:48;;;;;;;4.87;1.87;;;16.20;99.90;;;;;;4942767;28;20885;-81
2022/05/12 08:43:18;;;;;;;3.00;2.13;;;16.50;99.90;;;;;;4942509;28;20440;-81
2022/05/12 08:45:47;;;;;;;2.07;1.80;;;16.60;99.90;;;;;;4942307;28;20842;-81
2022/05/12 08:48:16;;;;;;;7.30;2.27;;;16.70;99.90;;;;;;4939907;28;20472;-80
2022/05/12 08:50:53;;;;;;;7.43;2.00;;;16.70;99.90;;;;;;4940473;28;20480;-80
2022/05/12 08:53:23;;;;;;;3.67;1.80;;;16.80;99.90;;;;;;4942178;28;20460;-81
2022/05/12 08:55:53;;;;;;;1.50;1.40;;;16.80;99.90;;;;;;4942328;28;21063;-81
2022/05/12 08:58:25;;;;;;;2.67;2.17;;;16.90;99.90;;;;;;4942510;28;21194;-80
2022/05/12 09:01:01;;;;;;;7.70;2.30;;;17.00;99.90;;;;;;4941200;28;20575;-80
2022/05/12 09:03:44;;;;;;;3.83;2.00;;;17.10;99.90;;;;;;4942087;28;20543;-76
2022/05/12 09:06:19;;;;;;;2.67;1.83;;;17.20;99.90;;;;;;4946239;28;20528;-76
2022/05/12 09:08:56;;;;;;;4.63;2.50;;;17.10;99.90;;;;;;4947830;28;20440;-76
2022/05/12 09:11:31;;;;;;;7.70;1.70;;;17.20;99.90;;;;;;4949904;28;21156;-76
2022/05/12 09:14:00;;;;;;;2.70;1.77;;;17.10;99.90;;;;;;4944018;28;20439;-77
2022/05/12 09:16:31;;;;;;;4.53;1.57;;;17.20;99.90;;;;;;4943481;28;20524;-76
2022/05/12 09:19:01;;;;;;;3.83;1.30;;;17.30;99.90;;;;;;4944145;28;20494;-77
2022/05/12 09:21:33;;;;;;;2.40;1.23;;;17.40;99.90;;;;;;4954823;28;20546;-76
2022/05/12 09:24:03;;;;;;;5.37;2.67;;;17.50;99.90;;;;;;4949148;28;20557;-77
2022/05/12 09:26:41;;;;;;;1.47;1.40;;;17.70;99.90;;;;;;4940714;28;20538;-74
2022/05/12 09:29:17;;;;;;;3.87;1.30;;;17.80;99.90;;;;;;4944977;28;20479;-77
2022/05/12 09:31:48;;;;;;;3.60;1.97;;;17.70;99.90;;;;;;4939269;29;20470;-76
2022/05/12 09:34:32;;;;;;;3.80;1.70;;;17.60;99.90;;;;;;4941640;29;20812;-77
2022/05/12 09:37:19;;;;;;;2.00;1.47;;;17.50;99.90;;;;;;4939551;29;20719;-76
2022/05/12 09:39:49;;;;;;;2.93;1.60;;;17.50;99.90;;;;;;4943370;28;20541;-76
2022/05/12 09:42:37;;;;;;;2.83;1.60;;;17.40;99.90;;;;;;4940938;29;20491;-77
2022/05/12 09:45:08;;;;;;;4.00;1.40;;;17.40;99.90;;;;;;4941643;28;20453;-77
2022/05/12 09:47:36;;;;;;;2.10;1.33;;;17.50;99.90;;;;;;4940922;29;20457;-77
2022/05/12 09:50:20;;;;;;;2.77;1.43;;;17.80;99.90;;;;;;4941852;28;21140;-77
2022/05/12 09:53:01;;;;;;;1.23;0.90;;;18.00;99.90;;;;;;4940887;28;20750;-77
2022/05/12 09:55:31;;;;;;;2.87;1.40;;;18.20;99.90;;;;;;4941517;28;20457;-77
2022/05/12 09:58:01;;;;;;;4.30;1.47;;;18.40;99.90;;;;;;4941546;28;20539;-78
2022/05/12 10:00:40;;;;;;;2.90;1.37;;;18.60;99.90;;;;;;4941512;28;20473;-77
2022/05/12 10:09:06;;;;;;;3.13;1.30;;;18.50;99.90;;;;;;4942130;28;20998;-74
2022/05/12 10:11:46;;;;;;;3.03;1.33;;;18.50;99.90;;;;;;4928174;28;20465;-75
2022/05/12 10:14:29;;;;;;;2.00;1.10;;;18.60;99.90;;;;;;4942553;28;20445;-75
2022/05/12 10:17:00;;;;;;;1.67;0.80;;;18.70;99.90;;;;;;4941981;28;20968;-74
2022/05/12 10:19:29;;;;;;;5.03;0.90;;;18.80;99.90;;;;;;4943141;28;20469;-73
2022/05/12 10:22:11;;;;;;;1.70;1.00;;;18.90;99.90;;;;;;4942451;28;20491;-74
2022/05/12 10:24:51;;;;;;;1.73;0.93;;;18.70;99.90;;;;;;4942244;28;20661;-74
2022/05/12 10:27:26;;;;;;;4.30;1.70;;;18.50;99.90;;;;;;4942300;28;20512;-74
2022/05/12 10:30:00;;;;;;;2.57;0.83;;;18.40;99.90;;;;;;4941211;29;20445;-73
2022/05/12 10:32:41;;;;;;;3.47;1.80;;;18.30;99.90;;;;;;4943696;28;20461;-73
2022/05/12 10:35:13;;;;;;;3.03;1.50;;;18.40;99.90;;;;;;4944080;28;20449;-73
2022/05/12 10:37:53;;;;;;;1.57;1.17;;;18.50;99.90;;;;;;4943820;28;20453;-75
2022/05/12 10:40:31;;;;;;;6.77;1.20;;;18.50;99.90;;;;;;4944342;28;20477;-75
2022/05/12 10:43:12;;;;;;;2.67;1.30;;;18.40;99.90;;;;;;4943077;28;20576;-75
2022/05/12 10:45:47;;;;;;;2.57;1.33;;;18.20;99.90;;;;;;4939861;28;20918;-75
2022/05/12 10:48:23;;;;;;;4.03;1.20;;;18.00;99.90;;;;;;4938072;29;20495;-74
2022/05/12 10:50:59;;;;;;;3.10;1.33;;;18.00;99.90;;;;;;4941046;28;20502;-76
2022/05/12 10:53:50;;;;;;;1.93;0.90;;;17.90;99.90;;;;;;4926031;29;20466;-74
2022/05/12 10:56:33;;;;;;;1.30;1.17;;;18.00;99.90;;;;;;4941837;28;20477;-74
2022/05/12 10:59:26;;;;;;;1.80;0.83;;;18.10;99.90;;;;;;4941144;28;20442;-75
2022/05/12 11:01:59;;;;;;;1.10;0.90;;;18.30;99.90;;;;;;4941736;28;20703;-74
2022/05/12 11:04:31;;;;;;;7.00;1.70;;;18.50;99.90;;;;;;4942267;28;20597;-74
2022/05/12 11:07:05;;;;;;;2.53;1.33;;;18.70;99.90;;;;;;4941467;28;20588;-74
2022/05/12 11:09:38;;;;;;;3.37;1.30;;;18.70;99.90;;;;;;4941185;28;20458;-74
2022/05/12 11:12:19;;;;;;;2.43;1.33;;;18.70;99.90;;;;;;4940920;28;20561;-74
2022/05/12 11:14:54;;;;;;;2.50;1.13;;;18.80;99.90;;;;;;4940642;28;20813;-74
2022/05/12 11:17:28;;;;;;;2.47;1.10;;;18.90;99.90;;;;;;4940433;28;20469;-74
2022/05/12 11:20:03;;;;;;;3.87;1.30;;;19.00;99.90;;;;;;4940393;28;20695;-77
2022/05/12 11:22:38;;;;;;;3.53;1.50;;;18.90;99.90;;;;;;4938192;28;20512;-74
2022/05/12 11:25:14;;;;;;;1.33;1.23;;;18.80;99.90;;;;;;4937165;29;20632;-74
2022/05/12 11:27:53;;;;;;;3.27;0.93;;;18.80;99.90;;;;;;4940872;28;20447;-75
2022/05/12 11:30:31;;;;;;;4.13;1.30;;;18.80;99.90;;;;;;4940949;28;20842;-73
2022/05/12 11:33:11;;;;;;;4.50;0.80;;;19.00;99.90;;;;;;4941050;28;20438;-74
2022/05/12 11:35:44;;;;;;;2.87;1.00;;;19.00;99.90;;;;;;4941018;28;20434;-76
2022/05/12 11:38:51;;;;;;;1.13;1.03;;;19.00;99.90;;;;;;4940328;28;20475;-76
2022/05/12 11:41:43;;;;;;;3.93;1.50;;;18.80;99.90;;;;;;4941085;28;20473;-75
2022/05/12 11:44:26;;;;;;;2.67;1.43;;;18.60;99.90;;;;;;4923248;29;20460;-75
2022/05/12 11:47:10;;;;;;;4.77;1.63;;;18.40;99.90;;;;;;4940173;29;20459;-74
2022/05/12 11:49:50;;;;;;;2.30;1.07;;;18.30;99.90;;;;;;4940533;28;20441;-73
2022/05/12 11:52:36;;;;;;;2.87;1.27;;;18.30;99.90;;;;;;4940343;28;20540;-72
2022/05/12 11:55:19;;;;;;;1.77;1.67;;;18.70;99.90;;;;;;4940554;28;21005;-74
2022/05/12 11:57:59;;;;;;;2.00;1.03;;;19.10;99.90;;;;;;4940563;28;20440;-73
2022/05/12 12:00:54;;;;;;;3.60;1.33;;;19.50;99.90;;;;;;4940363;28;20474;-72
2022/05/12 12:03:58;;;;;;;4.07;1.07;;;19.60;99.90;;;;;;4940276;28;20506;-70
2022/05/12 12:06:40;;;;;;;5.63;1.53;;;19.60;99.90;;;;;;4941362;28;20654;-73
2022/05/12 12:09:45;;;;;;;1.87;1.40;;;19.40;99.90;;;;;;4939914;28;20446;-69
2022/05/12 12:12:58;;;;;;;1.63;1.40;;;19.40;99.90;;;;;;4930401;28;20527;-70
2022/05/12 12:15:58;;;;;;;2.77;1.20;;;19.40;99.90;;;;;;4940457;28;20435;-71
2022/05/12 12:18:47;;;;;;;2.80;1.37;;;19.20;99.90;;;;;;4936713;28;20448;-73
2022/05/12 12:21:45;;;;;;;5.23;1.30;;;19.40;99.90;;;;;;4934642;29;20505;-73
2022/05/12 12:24:28;;;;;;;2.57;0.93;;;19.40;99.90;;;;;;4928646;28;20629;-71
2022/05/12 12:27:19;;;;;;;4.90;1.50;;;19.30;99.90;;;;;;4937461;29;20454;-71
2022/05/12 12:29:49;;;;;;;3.10;1.63;;;19.10;99.90;;;;;;4936920;28;20501;-74
2022/05/12 12:32:27;;;;;;;2.87;1.37;;;18.90;99.90;;;;;;4938730;28;20460;-73
2022/05/12 12:35:04;;;;;;;3.27;1.40;;;18.80;99.90;;;;;;4935779;29;20829;-75
2022/05/12 12:37:41;;;;;;;1.97;1.20;;;18.70;99.90;;;;;;4936016;29;20466;-73
2022/05/12 12:40:44;;;;;;;1.70;1.60;;;18.80;99.90;;;;;;4936694;28;20780;-73
2022/05/12 12:43:20;;;;;;;1.93;0.93;;;19.00;99.90;;;;;;4937392;29;20764;-75
2022/05/12 12:45:50;;;;;;;3.10;1.27;;;19.00;99.90;;;;;;4937952;28;20447;-74
2022/05/12 12:48:22;;;;;;;4.00;1.00;;;19.20;99.90;;;;;;4940717;28;20448;-74
2022/05/12 12:50:52;;;;;;;2.20;1.13;;;19.40;99.90;;;;;;4936088;28;20512;-73
2022/05/12 12:56:31;;;;;;;1.93;1.03;;;19.60;99.90;;;;;;4918351;28;20902;-75
2022/05/12 12:59:04;;;;;;;2.40;1.67;;;19.50;99.70;;;;;;4937818;29;20525;-75
2022/05/12 13:01:45;;;;;;;1.87;1.30;;;19.40;99.70;;;;;;4936818;29;20539;-74
2022/05/12 13:04:15;;;;;;;1.43;0.80;;;19.30;99.90;;;;;;4935560;29;20718;-72
2022/05/12 13:06:50;;;;;;;2.10;1.30;;;19.30;99.90;;;;;;4937071;28;20547;-73
2022/05/12 13:09:26;;;;;;;1.67;1.40;;;19.40;99.90;;;;;;4937500;29;20447;-74
2022/05/12 13:12:09;;;;;;;3.07;1.60;;;19.60;99.90;;;;;;4935499;29;20459;-76
2022/05/12 13:14:41;;;;;;;2.97;1.23;;;19.70;99.50;;;;;;4938696;29;20463;-76
2022/05/12 13:17:17;;;;;;;3.40;1.37;;;19.80;99.50;;;;;;4937581;28;20523;-76
2022/05/12 13:19:46;;;;;;;4.77;1.57;;;19.80;99.90;;;;;;4938239;29;20453;-75
2022/05/12 13:22:23;;;;;;;3.40;1.57;;;19.80;99.90;;;;;;4937505;29;20467;-75
2022/05/12 13:24:52;;;;;;;2.47;1.20;;;19.80;99.90;;;;;;4937231;29;20544;-76
2022/05/12 13:27:24;;;;;;;2.60;0.77;;;19.70;99.20;;;;;;4938698;28;20830;-76
2022/05/12 13:29:54;;;;;;;2.73;1.23;;;19.80;98.80;;;;;;4938739;29;20839;-76
2022/05/12 13:32:35;;;;;;;1.43;1.10;;;19.60;99.10;;;;;;4936614;28;21061;-76